sábado, 14 de maio de 2011

Condor special 757-300

Like I said on last post, today we had a most expected return: D-ABON, Condor's 753 special livery!
It's still is a very nice livery and it's interesting to see that it's been there for all these years...

Arrived around 8.20 am and I almost got it's landing...dad duties first...
Saw it passing by my side at GELO, arriving from Frankfurt...

Anyway, with the balcony closed for works, had to find some angles to beat the backlight at that time of the day, which turned out to make some different angles, while parked...




Linning up on runway 05 to depart to Munich
On the afternoon, it still made a flight from Munich to Madeira and return to Frankfurt...
(as I write this, it's entering Madeira Airport TMA...)
Weather isn't that good....
LPMA 121700Z 04015KT 9999 TS FEW006 FEW023 BKN060 21/18 Q1011 RS06012KT 0507013KT 2306016KT~

2 comentários:

  1. oxalá que o apanhe um dia destes lol :)

    ResponderExcluir
  2. Valeu a pena se levantar cedo porque o tempinho à tarde...

    ResponderExcluir